Time;durP1;ratioP1;P1;durP2;ratioP2;P2;SDS_P1;SDS_P2;PMS_P1;PMS_P2;Temp;Humidity;BMP_temperature;BMP_pressure;BME280_temperature;BME280_humidity;BME280_pressure;Samples;Min_cycle;Max_cycle;Signal;HPM_P1;HPM_P2
2021/10/18 00:01:11;;;;;;;11.13;7.57;;;9.30;33.20;;;;;;4861555;29;20041;-70
2021/10/18 00:03:37;;;;;;;9.57;6.97;;;9.30;35.00;;;;;;4862966;29;20124;-70
2021/10/18 00:06:03;;;;;;;7.68;6.88;;;9.10;22.60;;;;;;4865594;29;20046;-70
2021/10/18 00:08:29;;;;;;;8.02;7.22;;;8.90;34.40;;;;;;4865602;29;20569;-70
2021/10/18 00:10:55;;;;;;;9.35;7.20;;;8.80;33.50;;;;;;4865316;29;20367;-70
2021/10/18 00:13:20;;;;;;;9.63;8.15;;;8.80;41.90;;;;;;4865354;29;20066;-70
2021/10/18 00:15:46;;;;;;;10.88;8.05;;;8.80;42.50;;;;;;4864867;29;20132;-70
2021/10/18 00:18:12;;;;;;;9.57;7.75;;;8.70;41.50;;;;;;4865578;29;20044;-70
2021/10/18 00:20:38;;;;;;;11.00;8.35;;;8.70;45.30;;;;;;4865722;29;20045;-70
2021/10/18 00:23:04;;;;;;;10.68;8.20;;;8.70;46.00;;;;;;4865058;29;20050;-71
2021/10/18 00:25:30;;;;;;;9.80;8.25;;;8.70;51.40;;;;;;4864997;29;20038;-70
2021/10/18 00:27:56;;;;;;;10.30;7.97;;;8.70;43.10;;;;;;4865003;29;20053;-70
2021/10/18 00:30:22;;;;;;;9.43;8.43;;;8.70;46.80;;;;;;4865013;29;20045;-70
2021/10/18 00:32:47;;;;;;;10.48;8.60;;;8.70;52.10;;;;;;4864557;29;20132;-70
2021/10/18 00:35:13;;;;;;;9.50;8.60;;;8.80;54.80;;;;;;4864642;29;20042;-70
2021/10/18 00:37:39;;;;;;;9.32;8.23;;;8.70;50.30;;;;;;4864756;29;20045;-70
2021/10/18 00:40:07;;;;;;;13.43;9.45;;;8.70;54.60;;;;;;4864876;29;20044;-71
2021/10/18 00:42:33;;;;;;;11.75;9.18;;;8.70;53.10;;;;;;4864810;29;20099;-70
2021/10/18 00:45:00;;;;;;;9.98;8.13;;;8.70;49.80;;;;;;4864990;29;20042;-70
2021/10/18 00:47:26;;;;;;;10.63;7.95;;;8.70;44.20;;;;;;4864320;29;20469;-70
2021/10/18 00:49:52;;;;;;;9.95;8.63;;;8.60;51.60;;;;;;4864428;29;20073;-70
2021/10/18 00:52:20;;;;;;;9.15;8.25;;;8.60;56.00;;;;;;4864643;29;20081;-71
2021/10/18 00:54:47;;;;;;;9.00;7.68;;;8.50;48.30;;;;;;4864566;29;20071;-70
2021/10/18 00:57:16;;;;;;;9.23;7.55;;;8.40;35.50;;;;;;4864307;29;20045;-70
2021/10/18 00:59:45;;;;;;;8.93;7.82;;;8.30;44.30;;;;;;4864844;29;20049;-70
2021/10/18 01:02:11;;;;;;;14.05;9.43;;;8.30;48.60;;;;;;4864046;29;20075;-70
2021/10/18 01:04:37;;;;;;;8.52;7.57;;;8.30;47.70;;;;;;4864200;29;20045;-70
2021/10/18 01:07:03;;;;;;;9.85;8.38;;;8.20;51.80;;;;;;4864009;29;20058;-70
2021/10/18 01:09:29;;;;;;;8.88;7.97;;;8.20;49.60;;;;;;4864968;29;20041;-70
2021/10/18 01:11:55;;;;;;;10.82;8.07;;;8.30;50.10;;;;;;4864303;29;20050;-70
2021/10/18 01:14:21;;;;;;;9.63;7.93;;;8.30;42.10;;;;;;4863911;29;20509;-70
2021/10/18 01:16:47;;;;;;;9.80;8.02;;;8.30;37.20;;;;;;4863285;29;20049;-70
2021/10/18 01:19:16;;;;;;;9.63;8.18;;;8.40;30.70;;;;;;4864484;29;20047;-70
2021/10/18 01:21:43;;;;;;;9.77;7.57;;;8.40;28.80;;;;;;4864286;29;20157;-70
2021/10/18 01:24:10;;;;;;;11.43;7.60;;;8.30;31.60;;;;;;4863424;29;20053;-70
2021/10/18 01:26:36;;;;;;;9.52;8.38;;;8.30;25.70;;;;;;4863396;29;20058;-70
2021/10/18 01:29:02;;;;;;;9.98;8.15;;;8.20;38.20;;;;;;4864048;29;20061;-70
2021/10/18 01:31:28;;;;;;;12.45;9.00;;;8.10;45.00;;;;;;4863608;29;20049;-70
2021/10/18 01:33:54;;;;;;;10.25;8.43;;;8.00;45.00;;;;;;4864174;29;20456;-70
2021/10/18 01:36:21;;;;;;;12.10;8.27;;;8.00;44.60;;;;;;4863639;29;20045;-70
2021/10/18 01:38:48;;;;;;;11.57;7.85;;;7.90;50.00;;;;;;4864148;29;20080;-70
2021/10/18 01:41:14;;;;;;;9.30;7.55;;;7.90;49.30;;;;;;4863745;29;20034;-70
2021/10/18 01:43:40;;;;;;;8.43;7.30;;;7.90;47.50;;;;;;4863739;29;20047;-70
2021/10/18 01:46:06;;;;;;;10.18;7.82;;;7.80;45.90;;;;;;4863385;29;20505;-70
2021/10/18 01:48:32;;;;;;;8.45;7.60;;;7.90;38.40;;;;;;4863666;29;20057;-70
2021/10/18 01:50:58;;;;;;;8.30;7.43;;;7.90;40.30;;;;;;4863282;29;20045;-70
2021/10/18 01:53:24;;;;;;;10.77;8.63;;;7.90;47.70;;;;;;4863236;29;20053;-70
2021/10/18 01:55:50;;;;;;;10.32;8.30;;;8.00;44.30;;;;;;4862943;29;20049;-70
2021/10/18 01:58:17;;;;;;;12.75;9.77;;;8.10;40.80;;;;;;4863787;29;20064;-70
2021/10/18 02:00:43;;;;;;;10.35;9.25;;;8.20;38.90;;;;;;4862702;29;20124;-70
2021/10/18 02:03:10;;;;;;;10.73;8.63;;;8.20;39.30;;;;;;4862860;29;20048;-70
2021/10/18 02:05:36;;;;;;;12.20;9.18;;;8.30;38.30;;;;;;4862841;29;20493;-70
2021/10/18 02:08:02;;;;;;;10.95;9.00;;;8.30;39.00;;;;;;4863358;29;20061;-70
2021/10/18 02:10:28;;;;;;;11.35;8.88;;;8.40;36.70;;;;;;4863108;29;20045;-70
2021/10/18 02:12:54;;;;;;;8.82;7.93;;;8.50;27.50;;;;;;4862668;29;20405;-70
2021/10/18 02:15:20;;;;;;;8.40;7.53;;;8.40;21.60;;;;;;4863189;29;20041;-70
2021/10/18 02:17:46;;;;;;;9.35;7.90;;;8.40;21.70;;;;;;4862498;29;20417;-70
2021/10/18 02:20:13;;;;;;;10.57;8.00;;;8.30;21.50;;;;;;4862851;29;20072;-70
2021/10/18 02:22:39;;;;;;;8.18;7.38;;;8.30;20.90;;;;;;4862553;29;20094;-71
2021/10/18 02:25:07;;;;;;;9.75;7.00;;;8.40;21.10;;;;;;4863102;29;20044;-70
2021/10/18 02:27:33;;;;;;;8.65;7.78;;;8.40;17.70;;;;;;4862866;29;20148;-70
2021/10/18 02:29:59;;;;;;;8.30;7.07;;;8.50;15.30;;;;;;4862924;29;20117;-70
2021/10/18 02:32:25;;;;;;;9.77;7.15;;;8.50;17.40;;;;;;4862518;29;20045;-70
2021/10/18 02:34:51;;;;;;;8.05;7.10;;;8.50;19.30;;;;;;4862666;29;20546;-70
2021/10/18 02:37:17;;;;;;;8.32;6.82;;;8.50;18.30;;;;;;4862950;29;20087;-70
2021/10/18 02:39:43;;;;;;;7.80;6.57;;;8.30;18.10;;;;;;4862913;29;20048;-70
2021/10/18 02:42:08;;;;;;;10.27;7.35;;;8.20;17.40;;;;;;4862510;29;20406;-70
2021/10/18 02:44:34;;;;;;;9.75;7.22;;;8.10;26.20;;;;;;4862546;29;20043;-70
2021/10/18 02:47:00;;;;;;;8.27;7.18;;;8.10;19.70;;;;;;4862620;29;20049;-70
2021/10/18 02:49:26;;;;;;;9.13;7.03;;;8.20;21.50;;;;;;4863301;29;20056;-70
2021/10/18 02:51:52;;;;;;;11.07;7.50;;;8.30;19.10;;;;;;4862574;29;20098;-70
2021/10/18 02:54:18;;;;;;;11.10;8.38;;;8.60;12.30;;;;;;4862357;29;20441;-70
2021/10/18 02:56:44;;;;;;;14.55;8.65;;;8.50;14.40;;;;;;4862878;29;20121;-70
2021/10/18 02:59:09;;;;;;;11.52;8.63;;;8.60;18.60;;;;;;4862893;29;20041;-70
2021/10/18 03:01:35;;;;;;;18.27;9.55;;;8.60;23.00;;;;;;4862115;29;20128;-70
2021/10/18 03:04:01;;;;;;;15.57;9.68;;;8.50;40.80;;;;;;4862256;29;20045;-70
2021/10/18 03:06:27;;;;;;;17.85;10.00;;;8.40;54.00;;;;;;4862485;29;20101;-70
2021/10/18 03:08:53;;;;;;;16.10;9.50;;;8.40;53.20;;;;;;4862153;29;20041;-70
2021/10/18 03:11:20;;;;;;;14.38;8.88;;;8.50;50.10;;;;;;4862461;29;20542;-70
2021/10/18 03:13:46;;;;;;;11.88;9.57;;;8.40;53.40;;;;;;4862561;29;20045;-70
2021/10/18 03:16:11;;;;;;;12.90;9.43;;;8.60;59.60;;;;;;4862146;29;20208;-70
2021/10/18 03:18:38;;;;;;;13.60;9.73;;;8.70;37.10;;;;;;4862166;29;20045;-70
2021/10/18 03:21:04;;;;;;;12.02;9.90;;;8.70;46.90;;;;;;4862096;29;20100;-70
2021/10/18 03:23:30;;;;;;;16.73;9.88;;;8.70;27.50;;;;;;4862182;29;20057;-70
2021/10/18 03:25:56;;;;;;;13.50;9.00;;;8.70;35.10;;;;;;4861599;29;20044;-70
2021/10/18 03:28:22;;;;;;;12.23;9.25;;;8.60;40.10;;;;;;4862063;29;20082;-70
2021/10/18 03:30:48;;;;;;;13.60;10.32;;;8.50;38.60;;;;;;4862293;29;20394;-70
2021/10/18 03:33:14;;;;;;;13.88;9.60;;;8.50;41.60;;;;;;4862055;29;20045;-70
2021/10/18 03:35:41;;;;;;;14.90;9.48;;;8.50;38.00;;;;;;4861975;29;20454;-70
2021/10/18 03:38:06;;;;;;;13.70;9.75;;;8.50;38.10;;;;;;4861826;29;20085;-70
2021/10/18 03:40:32;;;;;;;14.13;9.93;;;8.60;28.30;;;;;;4865851;29;20053;-70
2021/10/18 03:42:58;;;;;;;12.77;8.98;;;8.50;29.60;;;;;;4865324;29;20041;-70
2021/10/18 03:45:24;;;;;;;10.30;8.38;;;8.50;34.80;;;;;;4865268;29;20042;-70
2021/10/18 03:47:50;;;;;;;12.93;9.13;;;8.50;30.60;;;;;;4865337;29;20045;-70
2021/10/18 03:50:15;;;;;;;12.95;9.48;;;8.50;26.50;;;;;;4865440;29;20046;-70
2021/10/18 03:52:42;;;;;;;12.98;9.30;;;8.50;34.30;;;;;;4865426;29;20038;-70
2021/10/18 03:55:09;;;;;;;13.68;9.98;;;8.60;30.30;;;;;;4865422;29;20105;-70
2021/10/18 03:57:35;;;;;;;13.02;9.63;;;8.60;36.10;;;;;;4865454;29;20052;-70
2021/10/18 04:00:02;;;;;;;11.82;9.80;;;8.60;30.00;;;;;;4865328;29;20037;-70
2021/10/18 04:02:27;;;;;;;14.38;10.05;;;8.60;31.80;;;;;;4865200;29;20037;-70
2021/10/18 04:04:53;;;;;;;12.82;9.82;;;8.60;34.40;;;;;;4865267;29;20473;-70
2021/10/18 04:07:19;;;;;;;11.82;9.20;;;8.60;36.50;;;;;;4865080;29;20053;-70
2021/10/18 04:09:46;;;;;;;11.38;9.45;;;8.50;37.70;;;;;;4864856;29;20540;-70
2021/10/18 04:12:12;;;;;;;14.75;9.90;;;8.50;36.10;;;;;;4865003;29;20045;-70
2021/10/18 04:14:38;;;;;;;18.02;10.38;;;8.60;35.30;;;;;;4865162;29;20045;-70
2021/10/18 04:17:04;;;;;;;17.98;10.15;;;8.60;36.20;;;;;;4864847;29;20045;-70
2021/10/18 04:19:30;;;;;;;18.77;10.57;;;8.50;43.60;;;;;;4868569;29;20067;-70
2021/10/18 04:21:56;;;;;;;16.50;10.30;;;8.50;50.10;;;;;;4882209;29;20037;-70
2021/10/18 04:24:22;;;;;;;22.05;10.73;;;8.50;50.30;;;;;;4881082;29;20060;-70
2021/10/18 04:26:48;;;;;;;14.18;9.82;;;8.50;55.00;;;;;;4881847;29;20040;-72
2021/10/18 04:29:14;;;;;;;12.57;8.63;;;8.50;50.70;;;;;;4881821;29;20037;-71
2021/10/18 04:31:39;;;;;;;12.55;9.75;;;8.50;43.80;;;;;;4881354;29;20097;-70
2021/10/18 04:34:05;;;;;;;17.48;9.52;;;8.50;39.60;;;;;;4881944;29;20041;-73
2021/10/18 04:36:31;;;;;;;12.43;9.35;;;8.60;32.00;;;;;;4882643;29;20497;-72
2021/10/18 04:38:57;;;;;;;16.38;9.35;;;8.50;34.10;;;;;;4883094;29;20512;-70
2021/10/18 04:41:23;;;;;;;14.65;9.07;;;8.40;41.30;;;;;;4882868;29;20037;-70
2021/10/18 04:43:49;;;;;;;11.40;9.55;;;8.40;45.10;;;;;;4882613;29;20056;-70
2021/10/18 04:46:15;;;;;;;12.80;9.73;;;8.40;45.60;;;;;;4882320;29;20557;-70
2021/10/18 04:48:41;;;;;;;13.13;9.07;;;8.50;39.40;;;;;;4881580;29;20168;-70
2021/10/18 04:51:07;;;;;;;12.50;9.45;;;8.40;41.50;;;;;;4881158;29;20092;-70
2021/10/18 04:53:33;;;;;;;12.57;9.65;;;8.40;38.20;;;;;;4882449;29;20418;-70
2021/10/18 04:55:59;;;;;;;11.75;9.10;;;8.30;37.80;;;;;;4882407;29;20052;-70
2021/10/18 04:58:25;;;;;;;10.90;9.43;;;8.20;42.60;;;;;;4882391;29;20041;-70
2021/10/18 05:00:55;;;;;;;11.77;9.10;;;8.20;44.90;;;;;;4881566;29;20033;-70
2021/10/18 05:03:21;;;;;;;12.25;9.45;;;8.40;34.80;;;;;;4882816;29;20045;-70
2021/10/18 05:05:47;;;;;;;10.68;8.75;;;8.60;25.00;;;;;;4882938;29;20048;-70
2021/10/18 05:08:14;;;;;;;10.23;8.80;;;8.60;22.60;;;;;;4883296;29;20053;-70
2021/10/18 05:10:41;;;;;;;8.70;7.63;;;8.70;24.40;;;;;;4883456;29;20595;-70
2021/10/18 05:13:09;;;;;;;9.95;8.32;;;8.70;22.00;;;;;;4883170;29;20047;-70
2021/10/18 05:15:35;;;;;;;12.88;10.50;;;8.70;23.00;;;;;;4882816;29;20045;-70
2021/10/18 05:18:01;;;;;;;12.02;9.45;;;8.60;26.70;;;;;;4882705;29;20053;-70
2021/10/18 05:20:28;;;;;;;11.75;9.05;;;8.60;31.40;;;;;;4882484;29;20045;-70
2021/10/18 05:22:53;;;;;;;10.13;9.10;;;8.60;30.20;;;;;;4882175;29;20056;-70
2021/10/18 05:25:19;;;;;;;10.40;9.20;;;8.60;29.30;;;;;;4882426;29;20397;-70
2021/10/18 05:27:45;;;;;;;10.68;8.68;;;8.60;31.40;;;;;;4882065;29;20056;-70
2021/10/18 05:30:12;;;;;;;10.98;8.48;;;8.50;35.00;;;;;;4882561;29;20052;-70
2021/10/18 05:32:38;;;;;;;11.30;8.55;;;8.50;37.60;;;;;;4882082;29;20109;-70
2021/10/18 05:35:05;;;;;;;12.38;9.13;;;8.50;36.20;;;;;;4882463;29;20048;-70
2021/10/18 05:37:31;;;;;;;11.65;9.45;;;8.50;35.10;;;;;;4882029;29;20084;-70
2021/10/18 05:39:57;;;;;;;11.02;8.90;;;8.40;36.50;;;;;;4881693;29;20041;-70
2021/10/18 05:42:23;;;;;;;11.60;8.60;;;8.40;37.40;;;;;;4882136;29;20044;-70
2021/10/18 05:44:49;;;;;;;10.23;8.15;;;8.40;34.20;;;;;;4881742;29;20029;-70
2021/10/18 05:47:15;;;;;;;9.25;7.82;;;8.40;36.90;;;;;;4881770;29;20085;-70
2021/10/18 05:49:41;;;;;;;11.48;8.95;;;8.40;35.20;;;;;;4881761;29;20378;-70
2021/10/18 05:52:07;;;;;;;12.00;9.10;;;8.40;34.90;;;;;;4881926;29;20060;-70
2021/10/18 05:54:32;;;;;;;10.30;8.27;;;8.30;35.20;;;;;;4881883;29;20044;-70
2021/10/18 05:56:58;;;;;;;10.70;8.52;;;8.30;38.00;;;;;;4881265;29;20153;-70
2021/10/18 05:59:24;;;;;;;10.63;8.85;;;8.40;34.30;;;;;;4881483;29;20041;-70
2021/10/18 06:01:50;;;;;;;11.02;8.40;;;8.40;31.70;;;;;;4881113;29;20045;-70
2021/10/18 06:04:16;;;;;;;9.25;8.30;;;8.40;31.90;;;;;;4881648;29;20069;-70
2021/10/18 06:06:42;;;;;;;9.80;8.25;;;8.30;37.30;;;;;;4881065;29;20509;-70
2021/10/18 06:09:10;;;;;;;10.80;8.55;;;8.20;42.10;;;;;;4881746;29;20060;-70
2021/10/18 06:11:36;;;;;;;10.60;7.97;;;8.30;37.70;;;;;;4881187;29;20037;-70
2021/10/18 06:14:01;;;;;;;11.30;8.45;;;8.20;44.50;;;;;;4881771;29;20120;-71
2021/10/18 06:16:27;;;;;;;10.65;8.27;;;8.20;38.60;;;;;;4881210;29;20052;-70
2021/10/18 06:18:53;;;;;;;11.25;8.85;;;8.20;42.40;;;;;;4881415;29;20045;-70
2021/10/18 06:21:19;;;;;;;10.05;8.95;;;8.20;38.50;;;;;;4881117;29;20511;-70
2021/10/18 06:23:45;;;;;;;9.80;8.80;;;8.10;43.90;;;;;;4881155;29;20068;-70
2021/10/18 06:26:12;;;;;;;9.77;8.05;;;8.10;41.30;;;;;;4881256;29;20048;-70
2021/10/18 06:28:39;;;;;;;10.95;8.65;;;8.20;40.40;;;;;;4881367;29;20071;-70
2021/10/18 06:31:05;;;;;;;10.23;8.52;;;8.10;40.60;;;;;;4881250;29;20045;-70
2021/10/18 06:33:31;;;;;;;9.52;8.25;;;8.10;43.60;;;;;;4881411;29;20051;-70
2021/10/18 06:35:57;;;;;;;9.43;8.52;;;8.10;42.90;;;;;;4881002;29;20045;-70
2021/10/18 06:38:24;;;;;;;10.70;9.18;;;8.00;40.90;;;;;;4881037;29;20385;-70
2021/10/18 06:40:50;;;;;;;9.27;8.30;;;8.10;30.70;;;;;;4881365;29;20041;-70
2021/10/18 06:43:18;;;;;;;12.15;8.93;;;8.10;31.70;;;;;;4881347;29;20135;-69
2021/10/18 06:45:47;;;;;;;9.65;8.65;;;8.00;39.60;;;;;;4881284;29;20036;-77
2021/10/18 06:48:19;;;;;;;11.27;9.18;;;8.10;37.00;;;;;;4879813;29;20566;-76
2021/10/18 06:50:46;;;;;;;12.02;9.68;;;8.20;34.40;;;;;;4879578;29;20600;-70
2021/10/18 06:53:17;;;;;;;10.55;9.45;;;8.20;31.90;;;;;;4879140;29;20044;-71
2021/10/18 06:55:44;;;;;;;9.95;8.90;;;8.60;17.30;;;;;;4879321;29;20044;-71
2021/10/18 06:58:10;;;;;;;10.98;8.05;;;8.80;4.00;;;;;;4880258;29;20041;-71
2021/10/18 07:00:37;;;;;;;8.95;7.80;;;8.90;1.00;;;;;;4880699;29;20048;-71
2021/10/18 07:03:03;;;;;;;9.80;8.52;;;9.00;1.00;;;;;;4880659;29;20041;-71
2021/10/18 07:05:30;;;;;;;8.98;8.07;;;8.90;1.00;;;;;;4880747;29;20129;-71
2021/10/18 07:07:56;;;;;;;9.27;8.30;;;8.90;2.60;;;;;;4880800;29;20048;-73
2021/10/18 07:10:22;;;;;;;9.23;8.15;;;8.90;1.00;;;;;;4881270;29;20045;-74
2021/10/18 07:12:48;;;;;;;11.13;8.30;;;8.80;1.00;;;;;;4880190;29;20066;-74
2021/10/18 07:15:14;;;;;;;8.55;7.65;;;8.80;3.00;;;;;;4880412;29;20056;-72
2021/10/18 07:17:40;;;;;;;11.38;7.93;;;8.90;5.00;;;;;;4880367;29;20045;-72
2021/10/18 07:20:07;;;;;;;9.10;8.20;;;8.90;1.00;;;;;;4881179;29;20489;-72
2021/10/18 07:22:43;;;;;;;11.85;8.75;;;9.00;2.20;;;;;;4880075;29;20045;-74
2021/10/18 07:25:12;;;;;;;9.82;8.27;;;9.10;1.00;;;;;;4880193;29;20073;-74
2021/10/18 07:27:38;;;;;;;9.10;8.20;;;9.00;1.50;;;;;;4879024;29;20056;-73
2021/10/18 07:30:05;;;;;;;9.88;8.88;;;9.00;6.40;;;;;;4879988;29;20049;-73
2021/10/18 07:32:32;;;;;;;12.70;9.32;;;9.00;5.10;;;;;;4880110;29;20053;-73
2021/10/18 07:34:59;;;;;;;11.07;9.20;;;9.00;3.40;;;;;;4880259;29;20041;-73
2021/10/18 07:37:28;;;;;;;11.95;8.82;;;9.00;5.70;;;;;;4880116;29;20045;-73
2021/10/18 07:39:54;;;;;;;12.25;9.15;;;9.10;1.00;;;;;;4880178;29;20120;-74
2021/10/18 07:42:20;;;;;;;12.10;9.30;;;9.10;11.20;;;;;;4880262;29;20096;-73
2021/10/18 07:44:46;;;;;;;12.10;9.73;;;9.20;13.20;;;;;;4879814;29;20040;-73
2021/10/18 07:47:13;;;;;;;12.32;9.88;;;9.20;10.90;;;;;;4879465;29;20060;-74
2021/10/18 07:49:42;;;;;;;13.50;9.68;;;9.20;7.90;;;;;;4879887;29;20041;-74
2021/10/18 07:52:12;;;;;;;12.68;10.30;;;9.20;9.10;;;;;;4880053;29;20048;-74
2021/10/18 07:54:43;;;;;;;12.10;9.57;;;9.30;11.60;;;;;;4880383;29;20044;-73
2021/10/18 07:57:09;;;;;;;13.00;9.80;;;9.30;13.90;;;;;;4879411;29;20088;-71
2021/10/18 07:59:35;;;;;;;14.40;10.70;;;9.50;16.40;;;;;;4880690;29;20041;-70
2021/10/18 08:02:02;;;;;;;14.77;10.30;;;9.50;18.60;;;;;;4879667;29;20041;-71
2021/10/18 08:04:28;;;;;;;14.48;10.80;;;9.50;19.40;;;;;;4878587;29;20081;-70
2021/10/18 08:06:54;;;;;;;13.43;10.77;;;9.40;27.20;;;;;;4879676;29;20083;-70
2021/10/18 08:09:22;;;;;;;11.07;9.95;;;9.40;30.50;;;;;;4865269;29;20500;-70
2021/10/18 08:11:48;;;;;;;14.15;9.73;;;9.50;38.30;;;;;;4859312;29;20037;-70
2021/10/18 08:14:13;;;;;;;10.38;9.38;;;9.60;38.30;;;;;;4860750;29;20037;-71
2021/10/18 08:16:39;;;;;;;9.82;8.82;;;9.70;37.30;;;;;;4861112;29;20128;-71
2021/10/18 08:19:05;;;;;;;10.38;8.57;;;9.80;34.30;;;;;;4860891;29;20045;-71
2021/10/18 08:21:31;;;;;;;13.23;9.15;;;9.80;31.60;;;;;;4861159;29;20508;-71
2021/10/18 08:23:57;;;;;;;12.25;9.18;;;9.90;33.30;;;;;;4860649;29;20065;-71
2021/10/18 08:26:23;;;;;;;12.88;9.75;;;9.90;40.40;;;;;;4864274;29;20125;-71
2021/10/18 08:28:48;;;;;;;11.55;9.32;;;10.00;44.80;;;;;;4864478;29;20057;-72
2021/10/18 08:31:15;;;;;;;11.70;10.43;;;10.10;44.20;;;;;;4864198;29;20038;-71
2021/10/18 08:33:41;;;;;;;11.68;9.00;;;10.20;39.40;;;;;;4864380;29;20056;-72
2021/10/18 08:36:07;;;;;;;12.73;8.98;;;10.30;42.70;;;;;;4864273;29;20050;-71
2021/10/18 08:41:25;;;;;;;11.50;10.30;;;10.40;55.80;;;;;;4864288;29;20038;-73
2021/10/18 08:46:36;;;;;;;10.27;9.20;;;10.70;61.50;;;;;;4863770;29;20052;-77
2021/10/18 08:49:02;;;;;;;11.73;9.27;;;10.80;61.10;;;;;;4864407;29;20054;-78
2021/10/18 08:51:28;;;;;;;11.18;9.93;;;10.90;62.40;;;;;;4864304;29;20072;-77
2021/10/18 08:53:55;;;;;;;11.20;9.77;;;11.00;55.80;;;;;;4863529;29;20045;-77
2021/10/18 08:56:21;;;;;;;10.32;9.23;;;11.00;56.80;;;;;;4863961;29;20041;-78
2021/10/18 08:58:48;;;;;;;12.90;9.80;;;11.10;64.30;;;;;;4863503;29;20128;-76
2021/10/18 09:01:14;;;;;;;10.98;9.88;;;11.30;62.40;;;;;;4863702;29;20046;-74
2021/10/18 09:03:40;;;;;;;11.18;10.07;;;11.50;55.20;;;;;;4863688;29;20140;-74
2021/10/18 09:06:23;;;;;;;11.23;10.05;;;11.80;50.60;;;;;;4863301;29;20136;-74
2021/10/18 09:09:01;;;;;;;11.68;10.38;;;11.90;31.80;;;;;;4862992;29;20084;-76
2021/10/18 09:11:28;;;;;;;12.18;10.27;;;11.90;59.80;;;;;;4861457;29;20125;-76
2021/10/18 09:13:58;;;;;;;12.52;9.65;;;12.00;70.00;;;;;;4863626;29;20041;-77
2021/10/18 09:16:30;;;;;;;12.38;11.10;;;11.90;60.10;;;;;;4863816;29;20516;-79
2021/10/18 09:19:01;;;;;;;12.25;10.73;;;11.90;86.90;;;;;;4864264;29;20498;-79
2021/10/18 09:21:35;;;;;;;14.85;11.23;;;12.10;84.60;;;;;;4863921;29;20045;-77
2021/10/18 09:24:02;;;;;;;14.70;10.70;;;11.90;75.70;;;;;;4863336;29;20057;-78
2021/10/18 09:26:31;;;;;;;16.08;10.20;;;12.10;94.30;;;;;;4864209;29;20100;-76
2021/10/18 09:29:06;;;;;;;14.55;9.98;;;12.30;75.60;;;;;;4864135;29;20042;-76
2021/10/18 09:31:32;;;;;;;12.75;9.90;;;12.40;60.60;;;;;;4864100;29;20484;-77
2021/10/18 09:34:06;;;;;;;11.38;9.77;;;12.60;66.20;;;;;;4863986;29;20056;-76
2021/10/18 09:36:33;;;;;;;12.70;10.02;;;12.50;62.70;;;;;;4862949;29;20107;-77
2021/10/18 09:39:16;;;;;;;10.82;9.73;;;12.40;85.70;;;;;;4863969;29;20056;-76
2021/10/18 09:41:54;;;;;;;12.23;10.00;;;12.70;93.00;;;;;;4864041;29;20041;-76
2021/10/18 09:44:30;;;;;;;15.38;9.35;;;12.90;79.00;;;;;;4863096;29;20393;-76
2021/10/18 09:47:05;;;;;;;10.50;9.43;;;13.10;55.90;;;;;;4863698;29;20050;-75
2021/10/18 10:54:02;;;;;;;5.50;4.53;;;14.10;1.00;;;;;;4862483;29;20042;-76
2021/10/18 10:56:44;;;;;;;5.45;4.40;;;14.10;1.00;;;;;;4862942;29;20077;-76
2021/10/18 11:01:50;;;;;;;6.35;4.80;;;14.20;1.00;;;;;;4861346;29;20042;-76
2021/10/18 11:04:31;;;;;;;7.97;5.40;;;14.50;1.00;;;;;;4862331;29;20132;-76
2021/10/18 11:07:01;;;;;;;5.28;4.78;;;14.60;1.00;;;;;;4862302;29;20064;-76
2021/10/18 11:09:38;;;;;;;5.85;4.78;;;14.70;1.00;;;;;;4862273;29;20056;-76
2021/10/18 11:12:15;;;;;;;4.75;4.35;;;14.60;1.00;;;;;;4862182;29;20060;-76
2021/10/18 11:14:41;;;;;;;4.32;3.33;;;14.70;1.00;;;;;;4862444;29;20049;-76
2021/10/18 11:17:06;;;;;;;5.15;3.95;;;15.30;1.00;;;;;;4861758;29;20475;-76
2021/10/18 11:19:32;;;;;;;6.40;3.92;;;15.30;1.00;;;;;;4862241;29;20049;-76
2021/10/18 11:22:01;;;;;;;5.38;4.15;;;15.40;1.00;;;;;;4862063;29;20037;-76
2021/10/18 11:24:42;;;;;;;4.07;3.67;;;15.20;1.00;;;;;;4862932;29;20114;-76
2021/10/18 11:27:07;;;;;;;4.70;4.13;;;15.20;1.00;;;;;;4861751;29;20057;-76
2021/10/18 11:29:34;;;;;;;5.15;3.42;;;15.50;1.00;;;;;;4862158;29;20050;-76
2021/10/18 11:32:08;;;;;;;6.35;3.75;;;15.70;1.00;;;;;;4861610;29;20125;-76
2021/10/18 11:34:35;;;;;;;3.80;3.10;;;15.70;1.00;;;;;;4862547;29;20041;-76
2021/10/18 11:37:01;;;;;;;4.10;3.70;;;15.90;1.00;;;;;;4861712;29;20041;-76
2021/10/18 11:39:28;;;;;;;4.80;3.47;;;15.90;1.00;;;;;;4862261;29;20077;-76
2021/10/18 11:42:08;;;;;;;4.32;3.60;;;16.10;1.00;;;;;;4861890;29;20052;-76
2021/10/18 11:44:54;;;;;;;5.53;3.75;;;16.10;1.00;;;;;;4861738;29;20048;-76
2021/10/18 11:47:23;;;;;;;4.70;3.50;;;16.00;1.00;;;;;;4861822;29;20046;-76
2021/10/18 11:50:15;;;;;;;6.45;4.25;;;16.00;1.00;;;;;;4861872;29;20057;-76
2021/10/18 11:52:48;;;;;;;4.93;3.17;;;16.00;1.00;;;;;;4861839;29;20049;-76
2021/10/18 11:55:20;;;;;;;4.93;3.55;;;15.90;1.00;;;;;;4862425;29;20072;-76
2021/10/18 11:57:48;;;;;;;4.85;3.50;;;16.10;1.00;;;;;;4861611;29;20136;-76
2021/10/18 12:00:25;;;;;;;5.90;3.28;;;16.40;1.00;;;;;;4863456;29;20041;-76
2021/10/18 12:02:52;;;;;;;5.75;2.78;;;16.50;1.00;;;;;;4865193;29;20128;-77
2021/10/18 12:05:19;;;;;;;4.78;3.42;;;16.70;1.00;;;;;;4865251;29;20096;-77
2021/10/18 12:07:50;;;;;;;5.53;3.22;;;16.60;1.00;;;;;;4865249;29;20057;-77
2021/10/18 12:10:21;;;;;;;5.82;3.50;;;16.90;1.00;;;;;;4863730;29;20041;-76
2021/10/18 12:13:24;;;;;;;7.22;3.70;;;16.70;1.00;;;;;;4865151;29;20053;-77
2021/10/18 12:15:50;;;;;;;6.25;3.50;;;16.60;1.00;;;;;;4865226;29;20077;-76
2021/10/18 12:18:24;;;;;;;6.03;3.10;;;16.90;1.00;;;;;;4864911;29;20454;-77
2021/10/18 12:20:53;;;;;;;6.60;3.58;;;16.60;1.00;;;;;;4864006;29;20472;-76
2021/10/18 12:23:29;;;;;;;5.82;3.58;;;16.40;1.00;;;;;;4864615;29;20110;-77
2021/10/18 12:26:04;;;;;;;6.15;3.22;;;16.20;1.00;;;;;;4865318;29;20045;-77
2021/10/18 12:28:51;;;;;;;5.70;3.70;;;16.40;1.00;;;;;;4865385;29;20041;-76
2021/10/18 12:31:44;;;;;;;5.90;3.33;;;16.50;1.00;;;;;;4864895;29;20045;-77
2021/10/18 12:34:18;;;;;;;7.07;3.92;;;16.60;1.00;;;;;;4865030;29;20045;-77
2021/10/18 12:36:48;;;;;;;8.95;3.35;;;16.70;1.00;;;;;;4864913;29;20045;-77
2021/10/18 12:39:14;;;;;;;21.33;5.30;;;17.10;1.00;;;;;;4864932;29;20038;-76
2021/10/18 12:41:44;;;;;;;10.63;3.90;;;16.90;1.00;;;;;;4864644;29;20120;-76
2021/10/18 12:44:13;;;;;;;4.60;3.42;;;16.70;1.00;;;;;;4865151;29;20045;-77
2021/10/18 12:46:43;;;;;;;6.30;3.78;;;16.80;1.00;;;;;;4864060;29;20091;-77
2021/10/18 12:49:08;;;;;;;6.53;3.08;;;16.70;1.00;;;;;;4864567;29;20056;-77
2021/10/18 12:51:38;;;;;;;6.63;3.15;;;16.70;1.00;;;;;;4864180;29;20037;-77
2021/10/18 12:54:16;;;;;;;4.72;2.63;;;16.90;1.00;;;;;;4864400;29;20037;-77
2021/10/18 12:56:42;;;;;;;2.78;2.42;;;16.80;1.00;;;;;;4864103;29;20140;-77
2021/10/18 12:59:08;;;;;;;4.35;2.85;;;16.80;1.00;;;;;;4864920;29;20582;-76
2021/10/18 13:01:34;;;;;;;3.88;2.70;;;16.80;1.00;;;;;;4864246;29;20044;-77
2021/10/18 13:04:17;;;;;;;8.50;3.67;;;16.80;1.00;;;;;;4864258;29;20052;-77
2021/10/18 13:06:43;;;;;;;6.80;3.08;;;16.90;1.00;;;;;;4864126;29;20097;-77
2021/10/18 13:09:09;;;;;;;5.97;3.08;;;17.00;1.00;;;;;;4864780;29;20053;-77
2021/10/18 13:11:40;;;;;;;5.22;2.95;;;16.70;1.00;;;;;;4862995;29;20501;-77
2021/10/18 13:14:07;;;;;;;8.25;3.72;;;16.70;1.00;;;;;;4863798;29;20062;-76
2021/10/18 13:16:33;;;;;;;8.13;3.45;;;17.10;1.00;;;;;;4863621;29;20049;-77
2021/10/18 13:18:59;;;;;;;11.15;4.63;;;17.00;1.00;;;;;;4864515;29;20041;-77
2021/10/18 13:21:25;;;;;;;5.53;3.80;;;17.00;1.00;;;;;;4863666;29;20117;-77
2021/10/18 13:23:51;;;;;;;6.35;2.90;;;17.00;1.00;;;;;;4864358;29;20481;-77
2021/10/18 13:26:17;;;;;;;7.43;3.90;;;17.20;1.00;;;;;;4863804;29;20050;-77
2021/10/18 13:28:43;;;;;;;11.48;5.00;;;17.10;1.00;;;;;;4864720;29;20041;-77
2021/10/18 13:31:09;;;;;;;9.95;7.15;;;17.10;1.00;;;;;;4863898;29;20381;-77
2021/10/18 13:33:35;;;;;;;8.75;5.47;;;17.40;1.00;;;;;;4864032;29;20041;-77
2021/10/18 13:36:01;;;;;;;8.93;4.75;;;17.80;1.00;;;;;;4863685;29;20048;-77
2021/10/18 13:38:27;;;;;;;7.90;6.13;;;18.00;1.00;;;;;;4864262;29;20082;-77
2021/10/18 13:40:53;;;;;;;10.38;6.15;;;18.20;1.00;;;;;;4864011;29;20065;-77
2021/10/18 13:43:19;;;;;;;8.77;4.65;;;18.50;1.00;;;;;;4863597;29;20565;-77
2021/10/18 13:45:44;;;;;;;6.63;3.78;;;18.60;1.00;;;;;;4863340;29;20132;-77
2021/10/18 13:48:12;;;;;;;6.28;3.20;;;18.50;1.00;;;;;;4863888;29;20045;-77
2021/10/18 13:50:38;;;;;;;4.75;3.45;;;18.60;1.00;;;;;;4863351;29;20037;-77
2021/10/18 13:53:04;;;;;;;4.75;3.40;;;18.60;1.00;;;;;;4863411;29;20052;-77
2021/10/18 13:55:30;;;;;;;4.13;3.72;;;18.40;1.00;;;;;;4864018;29;20474;-77
2021/10/18 13:57:56;;;;;;;4.35;3.20;;;18.10;1.00;;;;;;4863904;29;20049;-77
2021/10/18 14:00:22;;;;;;;8.32;3.85;;;18.00;1.00;;;;;;4863236;29;20052;-77
2021/10/18 14:02:48;;;;;;;5.65;3.85;;;17.70;1.00;;;;;;4863060;29;20486;-77
2021/10/18 14:05:15;;;;;;;4.93;4.00;;;17.40;1.00;;;;;;4863200;29;20537;-77